Time;durP1;ratioP1;P1;durP2;ratioP2;P2;SDS_P1;SDS_P2;PMS_P1;PMS_P2;Temp;Humidity;BMP_temperature;BMP_pressure;BME280_temperature;BME280_humidity;BME280_pressure;Samples;Min_cycle;Max_cycle;Signal;HPM_P1;HPM_P2
2023/05/09 00:01:11;;;;;;;6.30;5.70;;;13.50;1.00;;;;;;5098293;28;20642;-85
2023/05/09 00:03:38;;;;;;;5.77;5.27;;;13.50;1.00;;;;;;5101547;28;20207;-85
2023/05/09 00:06:04;;;;;;;5.43;4.93;;;13.40;99.90;;;;;;5109601;28;20194;-84
2023/05/09 00:08:30;;;;;;;5.50;5.00;;;13.40;99.90;;;;;;5114976;28;20266;-85
2023/05/09 00:10:55;;;;;;;6.37;5.27;;;13.40;1.00;;;;;;5114012;28;20259;-85
2023/05/09 00:13:22;;;;;;;5.37;4.87;;;13.40;99.90;;;;;;5107277;28;20208;-85
2023/05/09 00:15:48;;;;;;;6.97;5.03;;;13.40;99.90;;;;;;5103055;28;20703;-85
2023/05/09 00:18:13;;;;;;;5.83;5.20;;;13.30;1.00;;;;;;5112056;28;20258;-85
2023/05/09 00:20:39;;;;;;;5.30;4.80;;;13.10;1.00;;;;;;5114811;28;20280;-85
2023/05/09 00:23:06;;;;;;;7.13;5.00;;;13.10;99.90;;;;;;5113626;28;20192;-85
2023/05/09 00:25:32;;;;;;;4.73;4.33;;;13.10;1.00;;;;;;5113875;28;20262;-85
2023/05/09 00:27:57;;;;;;;5.50;4.80;;;13.00;99.90;;;;;;5115073;27;20275;-85
2023/05/09 00:30:23;;;;;;;4.77;4.37;;;13.00;1.00;;;;;;5113302;28;20172;-85
2023/05/09 00:32:49;;;;;;;5.13;4.33;;;13.00;1.00;;;;;;5114929;28;20187;-85
2023/05/09 00:35:14;;;;;;;4.80;4.27;;;13.00;99.90;;;;;;5114898;28;20171;-84
2023/05/09 00:37:40;;;;;;;4.93;4.23;;;13.00;99.90;;;;;;5114535;28;20238;-85
2023/05/09 00:40:08;;;;;;;5.17;3.87;;;12.90;1.00;;;;;;5114577;28;20203;-86
2023/05/09 00:42:34;;;;;;;5.53;4.13;;;12.90;99.90;;;;;;5113272;28;20201;-85
2023/05/09 00:45:00;;;;;;;4.27;3.87;;;12.90;1.00;;;;;;5114607;28;20172;-84
2023/05/09 00:47:27;;;;;;;4.70;4.30;;;12.90;99.90;;;;;;5114484;28;20206;-85
2023/05/09 00:49:52;;;;;;;5.87;4.37;;;12.90;21.90;;;;;;5112972;28;20299;-85
2023/05/09 00:52:22;;;;;;;4.40;4.00;;;12.90;1.00;;;;;;5112861;28;20183;-84
2023/05/09 00:54:49;;;;;;;5.03;4.07;;;12.90;1.00;;;;;;5114384;28;20160;-85
2023/05/09 00:57:16;;;;;;;4.63;3.80;;;13.00;1.00;;;;;;5113063;28;20179;-85
2023/05/09 00:59:41;;;;;;;4.33;3.93;;;12.90;99.90;;;;;;5114162;28;20167;-85
2023/05/09 01:02:07;;;;;;;4.63;4.00;;;12.90;1.00;;;;;;5112756;28;20168;-84
2023/05/09 01:04:33;;;;;;;4.23;3.83;;;12.70;1.00;;;;;;5112703;28;20231;-84
2023/05/09 01:07:28;;;;;;;4.43;4.03;;;12.70;1.00;;;;;;5112786;28;20589;-85
2023/05/09 01:10:27;;;;;;;4.33;3.93;;;12.60;67.40;;;;;;5113830;28;20168;-85
2023/05/09 01:13:07;;;;;;;4.63;3.80;;;12.60;99.90;;;;;;5112518;28;20210;-84
2023/05/09 01:15:36;;;;;;;4.97;3.83;;;12.60;1.00;;;;;;5114153;28;20168;-86
2023/05/09 01:18:14;;;;;;;4.40;4.00;;;12.50;99.90;;;;;;5114072;28;20199;-85
2023/05/09 01:20:54;;;;;;;4.20;3.80;;;12.30;1.00;;;;;;5092992;28;20172;-85
2023/05/09 01:23:35;;;;;;;5.47;3.63;;;12.40;99.90;;;;;;5092049;28;20192;-85
2023/05/09 01:26:18;;;;;;;5.00;4.07;;;12.50;99.90;;;;;;5093558;28;20220;-85
2023/05/09 01:28:52;;;;;;;4.00;3.60;;;12.50;1.00;;;;;;5092318;28;20230;-84
2023/05/09 01:31:19;;;;;;;5.00;3.50;;;12.60;41.20;;;;;;5091960;28;20174;-84
2023/05/09 01:33:47;;;;;;;4.17;3.77;;;12.60;99.90;;;;;;5091928;28;20188;-85
2023/05/09 01:36:17;;;;;;;4.40;3.83;;;12.70;1.00;;;;;;5093362;28;20169;-85
2023/05/09 01:38:47;;;;;;;4.37;3.97;;;12.70;99.90;;;;;;5093415;28;20596;-84
2023/05/09 01:41:15;;;;;;;4.67;4.27;;;12.80;1.00;;;;;;5092794;28;20169;-84
2023/05/09 01:43:44;;;;;;;4.57;4.17;;;12.80;99.90;;;;;;5092006;28;20265;-84
2023/05/09 01:46:11;;;;;;;4.17;3.80;;;12.80;70.20;;;;;;5091668;28;20192;-84
2023/05/09 01:48:37;;;;;;;5.00;4.57;;;12.80;99.90;;;;;;5093298;28;20168;-84
2023/05/09 01:51:04;;;;;;;4.50;4.10;;;12.70;94.20;;;;;;5092850;28;20618;-84
2023/05/09 01:53:31;;;;;;;5.03;4.53;;;12.50;99.90;;;;;;5091761;28;20188;-84
2023/05/09 01:55:58;;;;;;;5.27;4.57;;;12.50;1.00;;;;;;5091578;28;20176;-84
2023/05/09 01:58:25;;;;;;;4.67;4.27;;;12.50;99.90;;;;;;5092721;28;20176;-84
2023/05/09 02:00:52;;;;;;;4.83;4.43;;;12.50;99.90;;;;;;5092594;28;20179;-84
2023/05/09 02:03:18;;;;;;;4.90;4.50;;;12.50;1.00;;;;;;5092668;28;20202;-84
2023/05/09 02:05:46;;;;;;;4.87;4.40;;;12.60;99.90;;;;;;5091174;28;20187;-84
2023/05/09 02:08:14;;;;;;;4.80;4.40;;;12.50;99.90;;;;;;5092825;28;20172;-84
2023/05/09 02:10:40;;;;;;;5.03;4.47;;;12.60;1.00;;;;;;5092528;28;20243;-86
2023/05/09 02:13:06;;;;;;;4.67;4.27;;;12.70;1.00;;;;;;5091213;28;20777;-84
2023/05/09 02:15:32;;;;;;;4.63;4.23;;;12.80;1.00;;;;;;5091285;28;20207;-84
2023/05/09 02:17:58;;;;;;;4.90;4.13;;;12.80;75.60;;;;;;5091341;28;20266;-84
2023/05/09 02:20:23;;;;;;;4.43;3.97;;;12.80;99.90;;;;;;5091333;28;20258;-84
2023/05/09 02:22:49;;;;;;;5.30;4.80;;;12.70;1.00;;;;;;5092473;28;20253;-85
2023/05/09 02:25:17;;;;;;;4.87;4.37;;;12.60;1.00;;;;;;5091211;28;20168;-84
2023/05/09 02:27:45;;;;;;;5.07;4.57;;;12.70;1.00;;;;;;5091052;28;20666;-84
2023/05/09 02:30:16;;;;;;;4.83;4.40;;;12.70;99.90;;;;;;5092071;28;20180;-86
2023/05/09 02:32:44;;;;;;;4.53;4.13;;;12.70;1.00;;;;;;5091202;28;20196;-84
2023/05/09 02:35:11;;;;;;;4.77;4.30;;;12.60;1.00;;;;;;5091035;28;20224;-85
2023/05/09 02:37:37;;;;;;;3.97;3.67;;;12.60;99.90;;;;;;5093305;28;20566;-84
2023/05/09 02:40:07;;;;;;;5.03;4.53;;;12.50;1.00;;;;;;5101816;28;20179;-85
2023/05/09 02:42:33;;;;;;;4.77;4.30;;;12.50;1.00;;;;;;5103835;28;20276;-84
2023/05/09 02:44:59;;;;;;;6.23;3.90;;;12.50;99.90;;;;;;5111481;28;20266;-84
2023/05/09 02:47:25;;;;;;;5.80;4.53;;;12.50;1.00;;;;;;5111466;28;20579;-84
2023/05/09 02:49:50;;;;;;;4.90;4.50;;;12.60;99.90;;;;;;5111333;28;20179;-84
2023/05/09 02:52:16;;;;;;;5.30;4.80;;;12.50;1.00;;;;;;5112582;28;20630;-84
2023/05/09 02:54:41;;;;;;;5.17;4.67;;;12.50;1.00;;;;;;5113548;28;20178;-84
2023/05/09 02:57:07;;;;;;;5.30;4.67;;;12.50;1.00;;;;;;5116624;28;20677;-84
2023/05/09 02:59:32;;;;;;;5.10;4.60;;;12.50;99.90;;;;;;5115662;28;20176;-84
2023/05/09 03:01:58;;;;;;;5.30;4.80;;;12.40;99.90;;;;;;5115146;28;20250;-85
2023/05/09 03:04:26;;;;;;;5.30;4.80;;;12.50;1.00;;;;;;5115333;28;20176;-85
2023/05/09 03:06:52;;;;;;;6.10;5.50;;;12.50;82.20;;;;;;5116363;27;20187;-84
2023/05/09 03:09:18;;;;;;;6.30;4.80;;;12.40;1.00;;;;;;5115113;28;20172;-84
2023/05/09 03:11:43;;;;;;;4.70;4.20;;;12.40;1.00;;;;;;5115117;28;20207;-84
2023/05/09 03:14:10;;;;;;;5.37;4.40;;;12.30;1.00;;;;;;5115244;28;20211;-84
2023/05/09 03:16:35;;;;;;;5.27;4.77;;;12.10;99.90;;;;;;5116513;28;20182;-84
2023/05/09 03:19:02;;;;;;;6.40;4.90;;;12.10;1.00;;;;;;5116402;28;20172;-84
2023/05/09 03:21:27;;;;;;;5.37;4.87;;;12.00;99.90;;;;;;5116142;28;20211;-84
2023/05/09 03:23:53;;;;;;;5.50;4.87;;;12.00;1.00;;;;;;5114783;28;20222;-84
2023/05/09 03:26:19;;;;;;;4.67;4.03;;;12.10;1.00;;;;;;5114749;28;20570;-85
2023/05/09 03:28:45;;;;;;;4.93;4.43;;;12.10;1.00;;;;;;5115080;28;20168;-84
2023/05/09 03:31:11;;;;;;;5.03;4.53;;;12.10;32.90;;;;;;5114605;28;20179;-84
2023/05/09 03:33:36;;;;;;;5.20;4.43;;;12.10;99.90;;;;;;5114733;28;20219;-84
2023/05/09 03:36:02;;;;;;;5.93;4.47;;;12.20;1.00;;;;;;5116278;28;20229;-84
2023/05/09 03:38:27;;;;;;;4.23;3.83;;;12.20;1.00;;;;;;5114437;28;20657;-85
2023/05/09 03:40:53;;;;;;;4.67;4.17;;;12.20;1.00;;;;;;5115497;28;20199;-85
2023/05/09 03:43:19;;;;;;;5.33;4.17;;;12.20;1.00;;;;;;5114439;28;20199;-84
2023/05/09 03:45:44;;;;;;;4.60;4.20;;;12.10;1.00;;;;;;5115723;28;20198;-84
2023/05/09 03:48:10;;;;;;;5.23;4.37;;;12.10;1.00;;;;;;5115603;28;20179;-84
2023/05/09 03:50:36;;;;;;;4.53;4.13;;;12.10;1.00;;;;;;5114371;28;20263;-84
2023/05/09 03:53:02;;;;;;;5.13;4.47;;;12.20;1.00;;;;;;5115530;28;20196;-84
2023/05/09 03:55:28;;;;;;;4.50;4.07;;;12.20;1.00;;;;;;5115474;28;20168;-84
2023/05/09 03:57:54;;;;;;;5.00;4.50;;;12.40;99.90;;;;;;5114358;28;20179;-84
2023/05/09 04:00:21;;;;;;;4.60;3.90;;;12.40;1.00;;;;;;5115680;28;20214;-84
2023/05/09 04:02:47;;;;;;;5.20;4.10;;;12.30;99.90;;;;;;5115352;28;20219;-84
2023/05/09 04:05:13;;;;;;;4.83;4.40;;;12.30;1.00;;;;;;5115014;28;20254;-84
2023/05/09 04:07:39;;;;;;;4.53;4.10;;;12.30;99.90;;;;;;5115150;28;20203;-84
2023/05/09 04:10:05;;;;;;;5.00;4.50;;;12.30;99.90;;;;;;5105282;28;20608;-85
2023/05/09 04:12:31;;;;;;;6.57;4.40;;;12.30;99.90;;;;;;5106376;28;20204;-84
2023/05/09 04:14:56;;;;;;;5.13;4.63;;;12.20;99.90;;;;;;5103795;28;20532;-85
2023/05/09 04:17:22;;;;;;;5.10;4.60;;;12.20;1.00;;;;;;5093690;28;20187;-84
2023/05/09 04:19:47;;;;;;;5.30;4.67;;;12.10;99.90;;;;;;5093208;28;20176;-84
2023/05/09 04:22:13;;;;;;;5.37;4.80;;;12.10;1.00;;;;;;5093341;28;20194;-84
2023/05/09 04:24:38;;;;;;;5.30;4.70;;;12.10;99.90;;;;;;5103088;28;20200;-84
2023/05/09 04:27:04;;;;;;;5.27;4.77;;;12.10;1.00;;;;;;5110745;28;20196;-85
2023/05/09 04:29:30;;;;;;;6.30;5.10;;;12.10;1.00;;;;;;5115227;28;20182;-84
2023/05/09 04:31:56;;;;;;;5.80;5.20;;;12.20;99.90;;;;;;5115090;28;20168;-84
2023/05/09 04:34:22;;;;;;;5.47;4.97;;;12.10;1.00;;;;;;5113541;28;20199;-85
2023/05/09 04:36:48;;;;;;;5.13;4.63;;;12.10;1.00;;;;;;5113687;28;20187;-85
2023/05/09 04:39:13;;;;;;;5.87;5.23;;;12.10;1.00;;;;;;5114903;28;20179;-84
2023/05/09 04:41:39;;;;;;;6.00;5.37;;;12.00;1.00;;;;;;5113449;28;20180;-84
2023/05/09 04:44:05;;;;;;;5.70;5.20;;;12.10;72.30;;;;;;5113547;28;20202;-84
2023/05/09 04:46:31;;;;;;;5.53;5.03;;;12.20;1.00;;;;;;5104622;28;20207;-84
2023/05/09 04:48:56;;;;;;;6.63;5.27;;;12.30;1.00;;;;;;5113190;28;20174;-84
2023/05/09 04:51:22;;;;;;;6.00;5.10;;;12.30;1.00;;;;;;5114451;28;20171;-84
2023/05/09 04:53:47;;;;;;;6.00;5.20;;;12.40;1.00;;;;;;5105374;28;20244;-84
2023/05/09 04:56:13;;;;;;;5.87;5.27;;;12.40;1.00;;;;;;5111193;28;20172;-84
2023/05/09 04:58:38;;;;;;;5.50;5.00;;;12.40;99.90;;;;;;5113219;28;20180;-85
2023/05/09 05:01:05;;;;;;;5.37;4.87;;;12.50;99.90;;;;;;5113296;28;20183;-83
2023/05/09 05:03:32;;;;;;;6.47;5.07;;;12.50;1.00;;;;;;5112650;28;20192;-85
2023/05/09 05:05:58;;;;;;;5.90;5.30;;;12.60;99.90;;;;;;5112689;28;20348;-84
2023/05/09 05:08:23;;;;;;;6.00;5.50;;;12.70;1.00;;;;;;5112647;28;20267;-82
2023/05/09 05:10:49;;;;;;;6.07;5.47;;;12.80;99.90;;;;;;5112377;28;20179;-85
2023/05/09 05:13:15;;;;;;;5.73;5.07;;;12.90;99.90;;;;;;5120131;22;20703;-81
2023/05/09 05:15:41;;;;;;;5.87;5.27;;;13.00;99.90;;;;;;5085035;28;20330;-82
2023/05/09 05:18:07;;;;;;;6.77;6.10;;;12.90;23.50;;;;;;5082458;28;20168;-79
2023/05/09 05:20:32;;;;;;;5.87;5.27;;;13.00;1.00;;;;;;5082085;28;20173;-81
2023/05/09 05:22:58;;;;;;;5.77;5.17;;;13.10;99.90;;;;;;5082153;28;20196;-82
2023/05/09 05:25:25;;;;;;;6.47;5.80;;;13.10;99.90;;;;;;5087955;28;20169;-81
2023/05/09 05:27:50;;;;;;;8.33;5.93;;;13.20;99.90;;;;;;5088280;28;20213;-81
2023/05/09 05:30:16;;;;;;;5.63;5.10;;;13.20;99.90;;;;;;5093371;28;20193;-84
2023/05/09 05:32:42;;;;;;;6.17;5.57;;;13.30;1.00;;;;;;5103839;28;20172;-84
2023/05/09 05:35:10;;;;;;;4.93;4.43;;;13.50;1.00;;;;;;5098609;28;20179;-82
2023/05/09 05:37:37;;;;;;;5.50;4.90;;;13.70;1.00;;;;;;5097276;28;20183;-84
2023/05/09 05:40:04;;;;;;;5.90;5.27;;;14.00;1.00;;;;;;5104035;28;20245;-85
2023/05/09 05:42:30;;;;;;;6.40;5.53;;;14.10;99.90;;;;;;5102638;28;20180;-85
2023/05/09 05:44:56;;;;;;;5.37;4.87;;;14.20;99.90;;;;;;5099152;28;20176;-82
2023/05/09 05:47:22;;;;;;;7.20;5.37;;;14.40;99.90;;;;;;5103461;28;20287;-85
2023/05/09 05:49:47;;;;;;;6.73;5.23;;;14.40;1.00;;;;;;5103657;28;20199;-87
2023/05/09 05:52:13;;;;;;;5.50;5.00;;;14.50;99.90;;;;;;5107479;28;20160;-86
2023/05/09 05:54:39;;;;;;;10.30;5.80;;;14.40;99.90;;;;;;5107242;28;20181;-85
2023/05/09 05:57:04;;;;;;;5.87;5.33;;;14.40;97.80;;;;;;5107812;28;20235;-84
2023/05/09 05:59:30;;;;;;;6.13;5.20;;;14.40;26.80;;;;;;5108475;28;20187;-83
2023/05/09 06:01:55;;;;;;;7.07;6.20;;;14.30;99.90;;;;;;5108919;28;20168;-84
2023/05/09 06:04:21;;;;;;;6.67;6.07;;;14.20;99.90;;;;;;5110308;28;20192;-87
2023/05/09 06:06:46;;;;;;;9.00;6.30;;;14.10;99.90;;;;;;5108901;28;20211;-84
2023/05/09 06:09:12;;;;;;;7.17;6.47;;;14.10;1.00;;;;;;5109895;28;20176;-84
2023/05/09 06:11:38;;;;;;;8.50;6.77;;;14.10;1.00;;;;;;5110609;28;20172;-88
2023/05/09 06:14:03;;;;;;;8.07;6.93;;;14.10;99.90;;;;;;5111374;28;20208;-86
2023/05/09 06:16:29;;;;;;;7.30;6.47;;;14.20;99.90;;;;;;5105721;28;20184;-83
2023/05/09 06:18:54;;;;;;;9.13;6.70;;;14.20;25.20;;;;;;5096387;28;20179;-83
2023/05/09 06:21:20;;;;;;;7.70;6.90;;;14.30;99.90;;;;;;5098357;28;20178;-83
2023/05/09 06:23:45;;;;;;;8.27;6.87;;;14.40;99.90;;;;;;5097763;28;20184;-85
2023/05/09 06:26:13;;;;;;;7.07;6.37;;;14.50;99.90;;;;;;5096826;28;20192;-83
2023/05/09 06:28:39;;;;;;;8.03;6.50;;;14.70;99.90;;;;;;5098465;28;20213;-84
2023/05/09 06:31:04;;;;;;;7.53;6.73;;;14.80;1.00;;;;;;5095978;28;20172;-85
2023/05/09 06:33:30;;;;;;;7.90;7.10;;;14.90;1.00;;;;;;5099103;28;20586;-84
2023/05/09 06:35:55;;;;;;;10.43;7.53;;;15.00;1.00;;;;;;5098267;28;20175;-84
2023/05/09 06:38:21;;;;;;;8.27;6.93;;;15.10;1.00;;;;;;5096487;28;20176;-84
2023/05/09 06:40:46;;;;;;;7.50;6.70;;;15.20;99.90;;;;;;5097187;28;20183;-85
2023/05/09 06:43:12;;;;;;;7.57;6.77;;;15.30;1.00;;;;;;5098007;28;20616;-84
2023/05/09 06:45:37;;;;;;;8.60;7.10;;;15.30;99.90;;;;;;5099289;28;20180;-84
2023/05/09 06:48:03;;;;;;;9.07;7.40;;;15.30;99.90;;;;;;5096762;28;20179;-84
2023/05/09 06:50:29;;;;;;;8.53;7.50;;;15.50;99.90;;;;;;5097156;28;20168;-85
2023/05/09 06:52:54;;;;;;;9.13;8.20;;;15.50;1.00;;;;;;5096021;28;20192;-84
2023/05/09 06:55:20;;;;;;;8.13;7.33;;;15.50;99.90;;;;;;5098704;28;20176;-84
2023/05/09 06:57:45;;;;;;;8.93;7.80;;;15.40;1.00;;;;;;5100032;28;20191;-84
2023/05/09 07:00:12;;;;;;;8.50;7.57;;;15.40;99.90;;;;;;5087008;28;20610;-83
2023/05/09 07:02:40;;;;;;;9.57;8.30;;;15.40;1.00;;;;;;5064733;28;20234;-87
2023/05/09 07:05:07;;;;;;;9.70;8.17;;;15.50;1.00;;;;;;5079310;28;20384;-86
2023/05/09 07:07:33;;;;;;;8.30;7.40;;;15.60;99.90;;;;;;5088586;28;20283;-85
2023/05/09 07:10:00;;;;;;;9.57;7.97;;;15.80;99.90;;;;;;5094693;28;20475;-84
2023/05/09 07:12:25;;;;;;;8.83;7.93;;;15.90;1.00;;;;;;5096483;28;20184;-85
2023/05/09 07:14:51;;;;;;;9.37;7.97;;;16.00;1.00;;;;;;5084218;28;20637;-85
2023/05/09 07:17:16;;;;;;;8.97;8.07;;;16.00;1.00;;;;;;5093688;28;20184;-86
2023/05/09 07:19:42;;;;;;;8.70;7.80;;;16.10;1.00;;;;;;5095675;28;20215;-86
2023/05/09 07:22:07;;;;;;;8.27;7.43;;;16.20;1.00;;;;;;5098194;28;20184;-84
2023/05/09 07:24:33;;;;;;;9.20;8.23;;;16.10;1.00;;;;;;5098269;28;20207;-84
2023/05/09 07:27:02;;;;;;;9.33;8.40;;;15.90;1.00;;;;;;5101010;28;20204;-84
2023/05/09 07:29:27;;;;;;;9.67;8.03;;;15.90;1.00;;;;;;5100539;28;20260;-85
2023/05/09 07:31:53;;;;;;;8.60;7.73;;;15.80;1.00;;;;;;5099306;28;20261;-84
2023/05/09 07:34:19;;;;;;;9.43;7.53;;;15.80;99.90;;;;;;5099174;28;20214;-87
2023/05/09 07:36:45;;;;;;;8.93;7.97;;;15.80;99.90;;;;;;5099260;28;20210;-86
2023/05/09 07:39:10;;;;;;;8.67;7.77;;;15.80;1.00;;;;;;5100012;28;20180;-84
2023/05/09 07:41:36;;;;;;;8.43;7.57;;;15.90;99.90;;;;;;5105598;28;20180;-85
2023/05/09 07:44:02;;;;;;;9.13;7.53;;;16.00;99.90;;;;;;5103699;28;20216;-85
2023/05/09 07:46:27;;;;;;;8.53;7.47;;;16.00;1.00;;;;;;5103218;28;20219;-86
2023/05/09 07:48:53;;;;;;;7.83;7.13;;;16.00;1.00;;;;;;5105330;28;20222;-84
2023/05/09 07:51:18;;;;;;;7.77;6.97;;;16.00;1.00;;;;;;5106444;28;20195;-85
2023/05/09 07:53:44;;;;;;;8.40;7.07;;;16.10;63.50;;;;;;5104499;28;20580;-87
2023/05/09 07:56:09;;;;;;;7.53;6.70;;;16.20;99.90;;;;;;5107507;28;20172;-87
2023/05/09 07:58:35;;;;;;;7.23;6.20;;;16.20;99.90;;;;;;5106616;28;20196;-84
2023/05/09 08:01:01;;;;;;;7.33;6.30;;;16.40;11.70;;;;;;5105961;28;20172;-85
2023/05/09 08:03:26;;;;;;;6.20;5.57;;;16.40;1.00;;;;;;5109158;28;20220;-85
2023/05/09 08:05:54;;;;;;;6.53;5.83;;;16.40;1.00;;;;;;5106931;28;20627;-88
2023/05/09 08:08:20;;;;;;;6.70;5.80;;;16.50;99.90;;;;;;5109069;28;20592;-84
2023/05/09 08:10:45;;;;;;;6.50;5.90;;;16.30;99.90;;;;;;5107043;28;20712;-84
2023/05/09 08:13:11;;;;;;;7.37;6.30;;;16.30;99.90;;;;;;5100740;28;20329;-85
2023/05/09 08:15:37;;;;;;;6.43;5.83;;;16.20;99.90;;;;;;5092126;28;20166;-85
2023/05/09 08:18:02;;;;;;;6.00;5.40;;;16.20;99.90;;;;;;5089166;28;20181;-88
2023/05/09 08:20:30;;;;;;;5.60;5.10;;;16.20;1.00;;;;;;5093563;28;20183;-85
2023/05/09 08:22:55;;;;;;;6.10;5.50;;;16.40;1.00;;;;;;5095025;28;20578;-90
2023/05/09 08:25:21;;;;;;;6.03;5.43;;;16.40;1.00;;;;;;5093341;28;20181;-87
2023/05/09 08:27:46;;;;;;;5.57;5.00;;;16.50;99.90;;;;;;5101620;28;20215;-87
2023/05/09 08:30:12;;;;;;;5.60;5.10;;;16.70;99.90;;;;;;5108594;28;20168;-85
2023/05/09 08:32:38;;;;;;;7.43;5.30;;;16.70;30.20;;;;;;5106558;28;20187;-85
2023/05/09 08:35:04;;;;;;;6.57;5.30;;;16.60;99.90;;;;;;5089006;28;20196;-82
2023/05/09 08:37:30;;;;;;;5.67;5.07;;;16.60;99.90;;;;;;5094623;28;20263;-83
2023/05/09 08:39:56;;;;;;;6.03;5.37;;;16.60;99.90;;;;;;5104364;28;20176;-85
2023/05/09 08:42:22;;;;;;;5.80;5.30;;;16.70;1.00;;;;;;5102977;28;20184;-81
2023/05/09 08:44:47;;;;;;;6.50;5.90;;;16.70;1.00;;;;;;5103205;28;20197;-82
2023/05/09 08:47:14;;;;;;;6.00;5.40;;;16.70;1.00;;;;;;5106511;28;20200;-82
2023/05/09 08:49:40;;;;;;;7.20;6.13;;;16.70;99.90;;;;;;5104555;28;20172;-84
2023/05/09 08:52:06;;;;;;;6.43;5.83;;;16.80;99.90;;;;;;5107794;28;20174;-85
2023/05/09 08:54:32;;;;;;;6.27;5.67;;;16.80;99.90;;;;;;5110313;28;20193;-82
2023/05/09 08:57:00;;;;;;;6.20;5.70;;;16.90;99.90;;;;;;5112759;28;20226;-83
2023/05/09 08:59:26;;;;;;;6.07;5.50;;;16.90;1.00;;;;;;5113534;28;20195;-83
2023/05/09 09:01:53;;;;;;;6.20;5.60;;;17.00;99.90;;;;;;5112755;28;20176;-85
2023/05/09 09:04:19;;;;;;;6.37;5.77;;;17.20;99.90;;;;;;5112336;28;20317;-85
2023/05/09 09:06:45;;;;;;;6.60;6.00;;;17.20;99.90;;;;;;5112060;28;20686;-86
2023/05/09 09:09:11;;;;;;;7.03;5.70;;;17.20;99.90;;;;;;5107574;28;20198;-87
2023/05/09 09:11:39;;;;;;;7.93;5.77;;;17.30;99.90;;;;;;5112152;28;20172;-85
2023/05/09 09:14:14;;;;;;;7.87;6.10;;;17.40;99.90;;;;;;5111244;28;20183;-85
2023/05/09 09:16:42;;;;;;;5.83;5.33;;;17.30;1.00;;;;;;5110036;28;20168;-82
2023/05/09 09:19:12;;;;;;;6.70;6.07;;;17.40;99.90;;;;;;5111726;28;20165;-84
2023/05/09 09:21:43;;;;;;;7.53;6.03;;;17.50;99.90;;;;;;5109258;28;20184;-83
2023/05/09 09:24:12;;;;;;;7.50;5.57;;;17.60;99.90;;;;;;5112816;28;20212;-83
2023/05/09 09:26:46;;;;;;;7.30;6.30;;;17.80;99.90;;;;;;5109414;28;20192;-85
2023/05/09 09:29:12;;;;;;;6.30;5.70;;;17.90;1.00;;;;;;5106506;28;20199;-83
2023/05/09 09:31:38;;;;;;;7.50;5.77;;;18.10;99.90;;;;;;5106093;28;20186;-84
2023/05/09 09:34:03;;;;;;;7.03;6.13;;;18.60;99.90;;;;;;5106058;28;20259;-82
2023/05/09 09:36:31;;;;;;;6.90;6.13;;;19.20;99.90;;;;;;5108744;28;20180;-81
2023/05/09 09:39:03;;;;;;;6.20;5.60;;;19.70;99.90;;;;;;5107507;28;20187;-83
2023/05/09 09:41:34;;;;;;;5.93;5.33;;;20.00;1.00;;;;;;5108176;28;20168;-81
2023/05/09 09:44:09;;;;;;;7.50;6.70;;;20.30;99.90;;;;;;5106444;28;20200;-82
2023/05/09 09:46:49;;;;;;;6.70;6.10;;;20.30;99.90;;;;;;5108414;28;20207;-83
2023/05/09 09:49:23;;;;;;;7.25;6.55;;;20.30;99.90;;;;;;5107746;28;20168;-82
2023/05/09 09:51:50;;;;;;;7.20;6.50;;;20.00;99.90;;;;;;5095184;28;20184;-85
2023/05/09 09:54:16;;;;;;;8.07;6.32;;;20.00;99.90;;;;;;5093810;28;20196;-85
2023/05/09 09:56:47;;;;;;;6.93;6.17;;;20.00;1.00;;;;;;5100508;28;20229;-83
2023/05/09 09:59:13;;;;;;;7.47;6.65;;;20.40;1.00;;;;;;5102786;28;20221;-83
2023/05/09 10:02:00;;;;;;;6.70;5.90;;;20.40;99.90;;;;;;5095851;28;20172;-87
2023/05/09 10:04:30;;;;;;;7.13;6.40;;;20.50;99.90;;;;;;5073019;28;20204;-86
2023/05/09 10:07:04;;;;;;;8.70;6.07;;;20.90;99.90;;;;;;5089233;28;20188;-84
2023/05/09 10:09:31;;;;;;;7.15;6.50;;;21.00;99.90;;;;;;5057454;28;20530;-83
2023/05/09 10:12:01;;;;;;;6.80;6.20;;;21.40;99.90;;;;;;5085230;28;20206;-87
2023/05/09 10:14:29;;;;;;;7.05;5.88;;;21.50;96.70;;;;;;5094261;28;20213;-85
2023/05/09 10:16:56;;;;;;;5.97;5.47;;;21.70;99.90;;;;;;5091255;28;20292;-85
2023/05/09 10:19:23;;;;;;;6.35;5.75;;;21.70;99.90;;;;;;5099597;28;20165;-87
2023/05/09 10:22:13;;;;;;;6.13;5.32;;;21.50;5.20;;;;;;5089580;28;20180;-85
2023/05/09 10:24:45;;;;;;;5.75;5.25;;;21.90;99.90;;;;;;5076954;28;20196;-86
2023/05/09 10:27:11;;;;;;;5.53;4.95;;;22.00;1.00;;;;;;5082190;28;20228;-86
2023/05/09 10:29:50;;;;;;;5.13;4.72;;;21.90;1.00;;;;;;5086573;28;20176;-81
2023/05/09 10:32:36;;;;;;;4.72;4.32;;;22.10;1.00;;;;;;5089386;28;20690;-82
2023/05/09 10:35:05;;;;;;;5.40;4.30;;;22.10;1.00;;;;;;5092169;28;20642;-81
2023/05/09 10:37:31;;;;;;;4.10;3.75;;;22.50;1.00;;;;;;5079956;28;20281;-85
2023/05/09 10:39:58;;;;;;;4.05;3.75;;;22.70;1.00;;;;;;5074432;28;20205;-83
2023/05/09 10:42:24;;;;;;;4.00;3.70;;;22.70;1.00;;;;;;5074773;28;20172;-83
2023/05/09 10:44:53;;;;;;;3.45;3.15;;;22.90;1.00;;;;;;5074199;28;20204;-83
2023/05/09 10:47:20;;;;;;;3.60;3.30;;;23.00;1.00;;;;;;5082595;28;20192;-85
2023/05/09 10:49:47;;;;;;;3.45;3.15;;;22.70;1.00;;;;;;5083493;28;20230;-83
2023/05/09 10:52:13;;;;;;;4.90;3.05;;;22.20;1.00;;;;;;5082088;28;20177;-83
2023/05/09 10:54:39;;;;;;;3.75;3.15;;;21.90;1.00;;;;;;5075339;28;20189;-83
2023/05/09 10:57:07;;;;;;;3.60;2.95;;;21.90;1.00;;;;;;5074210;28;20179;-83
2023/05/09 10:59:39;;;;;;;6.00;3.00;;;22.10;1.00;;;;;;5075315;28;20540;-83
2023/05/09 11:02:12;;;;;;;3.20;2.90;;;22.00;1.00;;;;;;5073875;28;20245;-83
2023/05/09 11:04:39;;;;;;;3.22;2.70;;;21.80;1.00;;;;;;5075165;28;20227;-83
2023/05/09 11:07:25;;;;;;;3.50;3.20;;;21.80;1.00;;;;;;5073831;28;20219;-84
2023/05/09 11:10:16;;;;;;;3.30;3.00;;;21.50;1.00;;;;;;5074116;28;20169;-83
2023/05/09 11:15:22;;;;;;;3.47;2.70;;;21.60;1.00;;;;;;5072079;28;20239;-83
2023/05/09 11:18:08;;;;;;;4.65;2.70;;;21.80;1.00;;;;;;5074589;28;20208;-83
2023/05/09 11:20:35;;;;;;;3.80;3.13;;;21.80;1.00;;;;;;5076207;28;20188;-83
2023/05/09 11:23:03;;;;;;;2.90;2.67;;;22.40;1.00;;;;;;5078504;28;20211;-83
2023/05/09 11:25:29;;;;;;;3.72;3.28;;;22.40;1.00;;;;;;5077075;28;20173;-82
2023/05/09 11:28:00;;;;;;;3.42;3.13;;;21.50;1.00;;;;;;5078883;28;20211;-82
2023/05/09 11:30:38;;;;;;;3.08;2.70;;;21.40;1.00;;;;;;5077181;28;20180;-82
2023/05/09 11:33:05;;;;;;;3.40;3.10;;;21.20;1.00;;;;;;5078641;28;20184;-82
2023/05/09 11:35:32;;;;;;;3.50;3.20;;;21.00;1.00;;;;;;5077134;28;20263;-82
2023/05/09 11:38:03;;;;;;;3.65;3.25;;;21.10;1.00;;;;;;5077429;28;20176;-82
2023/05/09 11:40:30;;;;;;;3.65;3.35;;;21.30;1.00;;;;;;5077364;28;20161;-82
2023/05/09 11:42:57;;;;;;;3.40;3.08;;;21.60;1.00;;;;;;5075211;28;20173;-83
2023/05/09 11:45:26;;;;;;;3.28;2.97;;;21.40;1.00;;;;;;5074122;28;20176;-83
2023/05/09 11:47:52;;;;;;;4.38;3.40;;;21.30;1.00;;;;;;5073913;28;20205;-81
2023/05/09 11:50:20;;;;;;;3.40;3.13;;;21.40;1.00;;;;;;5075444;28;20173;-82
2023/05/09 11:52:47;;;;;;;3.45;3.15;;;21.30;1.00;;;;;;5074270;28;20173;-82
2023/05/09 11:55:14;;;;;;;3.50;3.20;;;21.40;1.00;;;;;;5074112;28;20191;-83
2023/05/09 11:57:46;;;;;;;4.35;3.25;;;21.60;1.00;;;;;;5075740;28;20222;-84
2023/05/09 12:00:17;;;;;;;3.25;2.97;;;21.80;1.00;;;;;;5075012;28;20564;-84
2023/05/09 12:02:44;;;;;;;3.50;3.20;;;22.10;1.00;;;;;;5073844;28;20177;-84
2023/05/09 12:05:12;;;;;;;5.30;3.38;;;21.90;1.00;;;;;;5073759;28;20216;-83
2023/05/09 12:07:38;;;;;;;3.53;3.22;;;21.80;1.00;;;;;;5073742;28;20583;-82
2023/05/09 12:10:08;;;;;;;5.32;3.50;;;21.80;1.00;;;;;;5073615;28;20184;-84
2023/05/09 12:12:55;;;;;;;3.38;3.08;;;22.00;1.00;;;;;;5073467;28;20222;-85
2023/05/09 12:15:21;;;;;;;5.78;3.38;;;22.40;1.00;;;;;;5073606;28;20185;-83
2023/05/09 12:17:59;;;;;;;3.70;3.40;;;22.40;1.00;;;;;;5074651;28;20184;-83
2023/05/09 12:20:24;;;;;;;3.63;2.90;;;22.30;1.00;;;;;;5073771;28;20183;-83
2023/05/09 12:22:53;;;;;;;3.40;2.80;;;22.30;1.00;;;;;;5074659;28;20177;-83
2023/05/09 12:25:18;;;;;;;3.22;2.95;;;22.50;1.00;;;;;;5073241;28;20184;-83
2023/05/09 12:27:44;;;;;;;3.30;3.00;;;22.50;1.00;;;;;;5073368;28;20209;-83
2023/05/09 12:30:12;;;;;;;3.72;3.20;;;22.60;1.00;;;;;;5074342;28;20199;-83
2023/05/09 12:32:38;;;;;;;4.28;3.28;;;22.60;1.00;;;;;;5074468;28;20176;-83
2023/05/09 12:35:06;;;;;;;3.20;2.90;;;22.60;1.00;;;;;;5073343;28;20201;-81
2023/05/09 12:37:31;;;;;;;3.30;3.00;;;22.80;1.00;;;;;;5072916;28;20201;-83
2023/05/09 12:40:04;;;;;;;3.38;3.08;;;23.00;1.00;;;;;;5074071;28;20258;-84
2023/05/09 12:42:34;;;;;;;3.33;3.03;;;22.70;1.00;;;;;;5074149;28;20177;-83
2023/05/09 12:45:06;;;;;;;3.30;3.00;;;22.50;1.00;;;;;;5073932;28;20671;-83
2023/05/09 12:47:32;;;;;;;4.38;3.13;;;22.60;1.00;;;;;;5073934;28;20247;-83
2023/05/09 12:50:00;;;;;;;5.10;3.35;;;23.00;1.00;;;;;;5072803;28;20173;-84
2023/05/09 12:52:34;;;;;;;4.15;3.42;;;23.20;1.00;;;;;;5074163;28;20228;-84
2023/05/09 12:55:06;;;;;;;2.95;2.75;;;23.10;1.00;;;;;;5073930;28;20246;-83
2023/05/09 12:57:32;;;;;;;3.33;3.03;;;23.30;1.00;;;;;;5074243;28;20188;-84